sensor_id;sensor_type;location;lat;lon;timestamp;pressure;altitude;pressure_sealevel;temperature;humidity
31088;BME280;17745;55.914;37.554;2023-04-26T00:01:21;97923.16;;;13.33;60.87
31088;BME280;17745;55.914;37.554;2023-04-26T00:03:50;97924.06;;;13.28;61.23
31088;BME280;17745;55.914;37.554;2023-04-26T00:06:19;97920.34;;;13.29;61.05
31088;BME280;17745;55.914;37.554;2023-04-26T00:08:51;97915.78;;;13.30;61.15
31088;BME280;17745;55.914;37.554;2023-04-26T00:11:22;97909.62;;;13.21;61.52
31088;BME280;17745;55.914;37.554;2023-04-26T00:13:53;97896.97;;;13.18;61.98
31088;BME280;17745;55.914;37.554;2023-04-26T00:16:23;97902.97;;;13.09;62.56
31088;BME280;17745;55.914;37.554;2023-04-26T00:19:02;97902.00;;;13.05;62.90
31088;BME280;17745;55.914;37.554;2023-04-26T00:21:32;97890.37;;;13.15;62.75
31088;BME280;17745;55.914;37.554;2023-04-26T00:24:02;97904.13;;;13.17;63.02
31088;BME280;17745;55.914;37.554;2023-04-26T00:26:35;97894.81;;;13.06;63.83
31088;BME280;17745;55.914;37.554;2023-04-26T00:29:08;97885.66;;;13.12;63.82
31088;BME280;17745;55.914;37.554;2023-04-26T00:31:39;97892.00;;;13.25;63.82
31088;BME280;17745;55.914;37.554;2023-04-26T00:34:12;97885.81;;;13.15;64.03
31088;BME280;17745;55.914;37.554;2023-04-26T00:36:43;97885.88;;;13.01;64.73
31088;BME280;17745;55.914;37.554;2023-04-26T00:39:12;97887.63;;;13.06;64.79
31088;BME280;17745;55.914;37.554;2023-04-26T00:41:44;97884.69;;;13.08;64.99
31088;BME280;17745;55.914;37.554;2023-04-26T00:44:24;97869.66;;;13.03;65.31
31088;BME280;17745;55.914;37.554;2023-04-26T00:46:54;97872.31;;;13.03;65.66
31088;BME280;17745;55.914;37.554;2023-04-26T00:49:29;97861.34;;;13.05;65.71
31088;BME280;17745;55.914;37.554;2023-04-26T00:52:00;97867.81;;;12.90;66.34
31088;BME280;17745;55.914;37.554;2023-04-26T00:54:36;97858.81;;;12.99;66.36
31088;BME280;17745;55.914;37.554;2023-04-26T00:57:08;97858.53;;;13.01;66.54
31088;BME280;17745;55.914;37.554;2023-04-26T00:59:44;97862.56;;;12.98;66.70
31088;BME280;17745;55.914;37.554;2023-04-26T01:02:18;97857.31;;;13.07;66.77
31088;BME280;17745;55.914;37.554;2023-04-26T01:04:55;97856.84;;;13.05;66.87
31088;BME280;17745;55.914;37.554;2023-04-26T01:10:18;97850.56;;;12.78;67.89
31088;BME280;17745;55.914;37.554;2023-04-26T01:12:50;97842.72;;;12.59;68.59
31088;BME280;17745;55.914;37.554;2023-04-26T01:15:22;97845.22;;;12.55;68.93
31088;BME280;17745;55.914;37.554;2023-04-26T01:17:53;97841.34;;;12.62;68.96
31088;BME280;17745;55.914;37.554;2023-04-26T01:20:25;97834.84;;;12.68;69.00
31088;BME280;17745;55.914;37.554;2023-04-26T01:23:20;97829.66;;;12.63;69.15
31088;BME280;17745;55.914;37.554;2023-04-26T01:25:52;97825.94;;;12.50;69.59
31088;BME280;17745;55.914;37.554;2023-04-26T01:28:24;97829.56;;;12.54;69.64
31088;BME280;17745;55.914;37.554;2023-04-26T01:31:13;97821.63;;;12.40;70.20
31088;BME280;17745;55.914;37.554;2023-04-26T01:33:57;97828.41;;;12.46;70.15
31088;BME280;17745;55.914;37.554;2023-04-26T01:36:29;97821.25;;;12.47;70.17
31088;BME280;17745;55.914;37.554;2023-04-26T01:39:03;97805.13;;;12.43;70.38
31088;BME280;17745;55.914;37.554;2023-04-26T01:41:34;97810.31;;;12.48;70.39
31088;BME280;17745;55.914;37.554;2023-04-26T01:44:04;97805.19;;;12.52;70.47
31088;BME280;17745;55.914;37.554;2023-04-26T01:46:38;97813.06;;;12.43;70.83
31088;BME280;17745;55.914;37.554;2023-04-26T01:49:12;97800.09;;;12.41;71.02
31088;BME280;17745;55.914;37.554;2023-04-26T01:51:43;97794.12;;;12.36;71.20
31088;BME280;17745;55.914;37.554;2023-04-26T01:54:18;97791.16;;;12.37;71.19
31088;BME280;17745;55.914;37.554;2023-04-26T01:56:54;97791.75;;;12.34;71.58
31088;BME280;17745;55.914;37.554;2023-04-26T01:59:30;97788.44;;;12.28;71.66
31088;BME280;17745;55.914;37.554;2023-04-26T02:02:04;97788.31;;;12.34;71.76
31088;BME280;17745;55.914;37.554;2023-04-26T02:04:37;97784.31;;;12.22;72.25
31088;BME280;17745;55.914;37.554;2023-04-26T02:07:09;97779.22;;;12.26;72.27
31088;BME280;17745;55.914;37.554;2023-04-26T02:09:47;97776.56;;;12.12;72.74
31088;BME280;17745;55.914;37.554;2023-04-26T02:12:25;97786.38;;;12.25;72.56
31088;BME280;17745;55.914;37.554;2023-04-26T02:14:54;97763.84;;;12.37;72.45
31088;BME280;17745;55.914;37.554;2023-04-26T02:17:34;97753.25;;;12.37;72.48
31088;BME280;17745;55.914;37.554;2023-04-26T02:20:05;97752.97;;;12.24;72.70
31088;BME280;17745;55.914;37.554;2023-04-26T02:22:37;97744.22;;;12.24;72.84
31088;BME280;17745;55.914;37.554;2023-04-26T02:25:10;97760.03;;;12.29;72.85
31088;BME280;17745;55.914;37.554;2023-04-26T02:27:40;97759.34;;;12.23;73.02
31088;BME280;17745;55.914;37.554;2023-04-26T02:30:10;97750.03;;;12.26;73.14
31088;BME280;17745;55.914;37.554;2023-04-26T02:32:39;97752.59;;;12.17;73.32
31088;BME280;17745;55.914;37.554;2023-04-26T02:35:12;97736.75;;;12.26;73.29
31088;BME280;17745;55.914;37.554;2023-04-26T02:37:50;97745.94;;;12.06;73.84
31088;BME280;17745;55.914;37.554;2023-04-26T02:40:47;97748.47;;;12.11;73.70
31088;BME280;17745;55.914;37.554;2023-04-26T02:43:19;97731.81;;;12.33;73.49
31088;BME280;17745;55.914;37.554;2023-04-26T02:45:52;97731.44;;;12.26;73.50
31088;BME280;17745;55.914;37.554;2023-04-26T02:48:22;97730.94;;;12.24;73.62
31088;BME280;17745;55.914;37.554;2023-04-26T02:50:51;97731.34;;;12.31;73.64
31088;BME280;17745;55.914;37.554;2023-04-26T02:53:22;97731.22;;;12.36;73.51
31088;BME280;17745;55.914;37.554;2023-04-26T02:55:57;97734.75;;;12.32;73.59
31088;BME280;17745;55.914;37.554;2023-04-26T02:58:27;97726.44;;;12.24;73.74
31088;BME280;17745;55.914;37.554;2023-04-26T03:01:00;97724.38;;;12.21;73.80
31088;BME280;17745;55.914;37.554;2023-04-26T03:03:29;97721.16;;;12.10;74.13
31088;BME280;17745;55.914;37.554;2023-04-26T03:06:03;97721.44;;;12.09;74.34
31088;BME280;17745;55.914;37.554;2023-04-26T03:08:52;97730.88;;;12.15;74.18
31088;BME280;17745;55.914;37.554;2023-04-26T03:11:32;97733.44;;;12.20;74.38
31088;BME280;17745;55.914;37.554;2023-04-26T03:14:07;97700.72;;;12.11;74.69
31088;BME280;17745;55.914;37.554;2023-04-26T03:16:50;97722.06;;;12.06;75.37
31088;BME280;17745;55.914;37.554;2023-04-26T03:19:24;97715.19;;;12.05;76.91
31088;BME280;17745;55.914;37.554;2023-04-26T03:21:55;97715.09;;;11.82;78.08
31088;BME280;17745;55.914;37.554;2023-04-26T03:24:27;97714.41;;;11.76;78.56
31088;BME280;17745;55.914;37.554;2023-04-26T03:27:03;97707.63;;;11.84;78.41
31088;BME280;17745;55.914;37.554;2023-04-26T03:29:39;97711.47;;;11.78;79.06
31088;BME280;17745;55.914;37.554;2023-04-26T03:32:08;97703.28;;;11.88;79.13
31088;BME280;17745;55.914;37.554;2023-04-26T03:34:38;97683.66;;;11.89;79.29
31088;BME280;17745;55.914;37.554;2023-04-26T03:37:07;97697.41;;;11.91;79.39
31088;BME280;17745;55.914;37.554;2023-04-26T03:39:36;97700.75;;;11.83;79.45
31088;BME280;17745;55.914;37.554;2023-04-26T03:42:07;97688.59;;;11.82;79.67
31088;BME280;17745;55.914;37.554;2023-04-26T03:44:42;97710.75;;;11.86;79.60
31088;BME280;17745;55.914;37.554;2023-04-26T03:47:12;97701.13;;;11.90;79.75
31088;BME280;17745;55.914;37.554;2023-04-26T03:49:42;97695.22;;;11.93;79.66
31088;BME280;17745;55.914;37.554;2023-04-26T03:52:11;97686.22;;;11.80;79.98
31088;BME280;17745;55.914;37.554;2023-04-26T03:54:42;97700.59;;;11.65;80.44
31088;BME280;17745;55.914;37.554;2023-04-26T03:57:32;97680.25;;;11.75;80.52
31088;BME280;17745;55.914;37.554;2023-04-26T04:00:01;97688.59;;;11.82;80.54
31088;BME280;17745;55.914;37.554;2023-04-26T04:02:31;97691.31;;;11.91;80.66
31088;BME280;17745;55.914;37.554;2023-04-26T04:05:02;97693.13;;;11.67;82.72
31088;BME280;17745;55.914;37.554;2023-04-26T04:07:39;97680.16;;;11.80;82.42
31088;BME280;17745;55.914;37.554;2023-04-26T04:10:24;97681.97;;;11.93;82.56
31088;BME280;17745;55.914;37.554;2023-04-26T04:13:04;97699.06;;;12.01;82.30
31088;BME280;17745;55.914;37.554;2023-04-26T04:15:33;97693.69;;;12.06;82.38
31088;BME280;17745;55.914;37.554;2023-04-26T04:18:04;97691.03;;;12.06;82.29
31088;BME280;17745;55.914;37.554;2023-04-26T04:20:36;97677.75;;;12.06;82.35
31088;BME280;17745;55.914;37.554;2023-04-26T04:23:07;97680.59;;;11.96;82.55
31088;BME280;17745;55.914;37.554;2023-04-26T04:25:39;97681.38;;;11.96;82.55
31088;BME280;17745;55.914;37.554;2023-04-26T04:28:14;97672.03;;;11.99;82.62
31088;BME280;17745;55.914;37.554;2023-04-26T04:30:51;97657.38;;;11.79;83.18
31088;BME280;17745;55.914;37.554;2023-04-26T04:33:20;97675.94;;;11.79;83.04
31088;BME280;17745;55.914;37.554;2023-04-26T04:35:50;97669.72;;;11.83;83.01
31088;BME280;17745;55.914;37.554;2023-04-26T04:38:19;97664.59;;;11.87;83.31
31088;BME280;17745;55.914;37.554;2023-04-26T04:40:47;97665.00;;;11.80;84.01
31088;BME280;17745;55.914;37.554;2023-04-26T04:43:20;97682.47;;;11.95;84.19
31088;BME280;17745;55.914;37.554;2023-04-26T04:45:54;97654.41;;;11.80;84.68
31088;BME280;17745;55.914;37.554;2023-04-26T04:48:25;97666.16;;;11.88;84.44
31088;BME280;17745;55.914;37.554;2023-04-26T04:51:01;97671.50;;;11.74;84.87
31088;BME280;17745;55.914;37.554;2023-04-26T04:53:30;97670.38;;;11.89;84.63
31088;BME280;17745;55.914;37.554;2023-04-26T04:56:01;97676.84;;;11.97;84.54
31088;BME280;17745;55.914;37.554;2023-04-26T04:58:38;97671.97;;;12.04;84.39
31088;BME280;17745;55.914;37.554;2023-04-26T05:01:09;97682.88;;;12.03;84.31
31088;BME280;17745;55.914;37.554;2023-04-26T05:03:39;97674.78;;;12.08;83.99
31088;BME280;17745;55.914;37.554;2023-04-26T05:06:15;97664.38;;;12.11;84.06
31088;BME280;17745;55.914;37.554;2023-04-26T05:08:44;97680.50;;;12.15;84.00
31088;BME280;17745;55.914;37.554;2023-04-26T05:11:16;97668.28;;;12.14;83.76
31088;BME280;17745;55.914;37.554;2023-04-26T05:13:54;97676.44;;;12.18;83.61
31088;BME280;17745;55.914;37.554;2023-04-26T05:16:31;97668.41;;;12.09;83.51
31088;BME280;17745;55.914;37.554;2023-04-26T05:19:22;97674.38;;;12.14;83.60
31088;BME280;17745;55.914;37.554;2023-04-26T05:21:56;97673.16;;;12.21;83.49
31088;BME280;17745;55.914;37.554;2023-04-26T05:24:37;97672.41;;;12.20;83.36
31088;BME280;17745;55.914;37.554;2023-04-26T05:29:30;97669.25;;;12.64;82.20
31088;BME280;17745;55.914;37.554;2023-04-26T05:32:00;97669.25;;;12.64;82.20
31088;BME280;17745;55.914;37.554;2023-04-26T05:34:29;97674.53;;;12.32;82.85
31088;BME280;17745;55.914;37.554;2023-04-26T05:36:58;97681.25;;;12.38;82.72
31088;BME280;17745;55.914;37.554;2023-04-26T05:39:31;97663.22;;;12.26;82.63
31088;BME280;17745;55.914;37.554;2023-04-26T05:42:03;97672.16;;;12.30;82.40
31088;BME280;17745;55.914;37.554;2023-04-26T05:44:34;97681.03;;;12.26;82.57
31088;BME280;17745;55.914;37.554;2023-04-26T05:47:03;97672.00;;;12.27;82.40
31088;BME280;17745;55.914;37.554;2023-04-26T05:49:34;97676.81;;;12.25;82.69
31088;BME280;17745;55.914;37.554;2023-04-26T05:52:05;97670.91;;;12.28;83.08
31088;BME280;17745;55.914;37.554;2023-04-26T05:54:42;97650.44;;;12.28;83.28
31088;BME280;17745;55.914;37.554;2023-04-26T05:57:13;97678.06;;;12.27;82.84
31088;BME280;17745;55.914;37.554;2023-04-26T05:59:45;97686.22;;;12.31;83.26
31088;BME280;17745;55.914;37.554;2023-04-26T06:05:05;97677.78;;;12.29;83.34
31088;BME280;17745;55.914;37.554;2023-04-26T06:07:51;97681.88;;;12.35;83.32
31088;BME280;17745;55.914;37.554;2023-04-26T06:10:22;97669.63;;;12.48;83.15
31088;BME280;17745;55.914;37.554;2023-04-26T06:12:55;97682.28;;;12.51;83.14
31088;BME280;17745;55.914;37.554;2023-04-26T06:15:33;97675.59;;;12.54;82.86
31088;BME280;17745;55.914;37.554;2023-04-26T06:18:04;97690.25;;;12.51;82.89
31088;BME280;17745;55.914;37.554;2023-04-26T06:20:42;97689.16;;;12.52;83.15
31088;BME280;17745;55.914;37.554;2023-04-26T06:23:11;97685.41;;;12.53;83.16
31088;BME280;17745;55.914;37.554;2023-04-26T06:25:44;97666.84;;;12.53;83.11
31088;BME280;17745;55.914;37.554;2023-04-26T06:28:30;97694.47;;;12.52;83.30
31088;BME280;17745;55.914;37.554;2023-04-26T06:31:06;97681.97;;;12.76;83.34
31088;BME280;17745;55.914;37.554;2023-04-26T06:33:36;97678.84;;;12.73;82.25
31088;BME280;17745;55.914;37.554;2023-04-26T06:36:05;97681.28;;;12.93;83.08
31088;BME280;17745;55.914;37.554;2023-04-26T06:38:43;97685.72;;;13.06;82.96
31088;BME280;17745;55.914;37.554;2023-04-26T06:41:16;97686.94;;;13.00;83.01
31088;BME280;17745;55.914;37.554;2023-04-26T06:43:53;97684.28;;;13.00;82.76
31088;BME280;17745;55.914;37.554;2023-04-26T06:46:29;97689.59;;;13.00;82.17
31088;BME280;17745;55.914;37.554;2023-04-26T06:49:07;97688.19;;;13.02;82.24
31088;BME280;17745;55.914;37.554;2023-04-26T06:51:46;97689.19;;;13.15;82.57
31088;BME280;17745;55.914;37.554;2023-04-26T06:54:19;97692.53;;;13.30;82.11
31088;BME280;17745;55.914;37.554;2023-04-26T06:56:49;97667.44;;;13.13;81.98
31088;BME280;17745;55.914;37.554;2023-04-26T06:59:26;97692.47;;;13.12;81.99
31088;BME280;17745;55.914;37.554;2023-04-26T07:02:19;97691.41;;;13.22;82.23
31088;BME280;17745;55.914;37.554;2023-04-26T07:04:59;97701.91;;;13.27;82.13
31088;BME280;17745;55.914;37.554;2023-04-26T07:07:41;97699.25;;;13.27;82.12
31088;BME280;17745;55.914;37.554;2023-04-26T07:10:22;97697.03;;;13.21;81.79
31088;BME280;17745;55.914;37.554;2023-04-26T07:12:56;97685.91;;;13.10;81.94
31088;BME280;17745;55.914;37.554;2023-04-26T07:15:43;97701.38;;;13.08;82.16
31088;BME280;17745;55.914;37.554;2023-04-26T07:18:58;97702.28;;;13.03;81.84
31088;BME280;17745;55.914;37.554;2023-04-26T07:21:35;97706.69;;;12.85;81.92
31088;BME280;17745;55.914;37.554;2023-04-26T07:24:05;97707.25;;;12.73;82.34
31088;BME280;17745;55.914;37.554;2023-04-26T07:26:49;97699.81;;;12.84;82.35
31088;BME280;17745;55.914;37.554;2023-04-26T07:29:20;97706.81;;;12.80;82.30
31088;BME280;17745;55.914;37.554;2023-04-26T07:32:00;97707.25;;;12.96;82.49
31088;BME280;17745;55.914;37.554;2023-04-26T07:34:47;97714.50;;;13.13;82.27
31088;BME280;17745;55.914;37.554;2023-04-26T07:37:25;97718.59;;;13.19;82.10
31088;BME280;17745;55.914;37.554;2023-04-26T07:40:03;97709.50;;;13.11;81.89
31088;BME280;17745;55.914;37.554;2023-04-26T07:42:37;97706.09;;;13.20;81.89
31088;BME280;17745;55.914;37.554;2023-04-26T07:45:19;97712.09;;;13.34;81.68
31088;BME280;17745;55.914;37.554;2023-04-26T07:48:04;97713.63;;;13.26;81.29
31088;BME280;17745;55.914;37.554;2023-04-26T07:50:47;97715.22;;;13.27;81.41
31088;BME280;17745;55.914;37.554;2023-04-26T07:53:35;97720.78;;;13.49;81.34
31088;BME280;17745;55.914;37.554;2023-04-26T08:07:08;97730.75;;;14.10;79.21
31088;BME280;17745;55.914;37.554;2023-04-26T08:09:55;97730.75;;;14.10;79.21
31088;BME280;17745;55.914;37.554;2023-04-26T08:12:35;97732.53;;;13.56;80.49
31088;BME280;17745;55.914;37.554;2023-04-26T08:18:25;97722.47;;;14.20;78.99
31088;BME280;17745;55.914;37.554;2023-04-26T08:20:58;97722.47;;;14.20;78.99
31088;BME280;17745;55.914;37.554;2023-04-26T08:23:44;97738.66;;;13.66;80.37
31088;BME280;17745;55.914;37.554;2023-04-26T08:26:38;97725.81;;;13.59;80.38
31088;BME280;17745;55.914;37.554;2023-04-26T08:29:11;97744.94;;;13.70;80.45
31088;BME280;17745;55.914;37.554;2023-04-26T08:32:01;97731.97;;;13.77;80.33
31088;BME280;17745;55.914;37.554;2023-04-26T08:34:33;97748.88;;;13.90;80.56
31088;BME280;17745;55.914;37.554;2023-04-26T08:37:05;97716.66;;;13.83;80.26
31088;BME280;17745;55.914;37.554;2023-04-26T08:39:34;97748.12;;;14.07;80.27
31088;BME280;17745;55.914;37.554;2023-04-26T08:42:12;97723.69;;;14.05;80.15
31088;BME280;17745;55.914;37.554;2023-04-26T08:44:49;97741.72;;;13.99;79.45
31088;BME280;17745;55.914;37.554;2023-04-26T08:47:28;97746.22;;;13.90;79.34
31088;BME280;17745;55.914;37.554;2023-04-26T08:50:24;97739.53;;;14.19;79.47
31088;BME280;17745;55.914;37.554;2023-04-26T08:53:36;97749.41;;;14.27;79.28
31088;BME280;17745;55.914;37.554;2023-04-26T09:00:12;97738.09;;;14.04;78.81
31088;BME280;17745;55.914;37.554;2023-04-26T09:02:52;97752.94;;;13.96;78.82
31088;BME280;17745;55.914;37.554;2023-04-26T09:05:23;97728.53;;;13.85;79.37
31088;BME280;17745;55.914;37.554;2023-04-26T09:07:56;97750.56;;;13.77;79.35
31088;BME280;17745;55.914;37.554;2023-04-26T09:10:27;97748.00;;;13.54;80.00
31088;BME280;17745;55.914;37.554;2023-04-26T09:13:02;97761.22;;;13.77;79.69
31088;BME280;17745;55.914;37.554;2023-04-26T09:15:50;97758.78;;;13.98;79.95
31088;BME280;17745;55.914;37.554;2023-04-26T09:18:47;97748.75;;;14.04;79.49
31088;BME280;17745;55.914;37.554;2023-04-26T09:21:44;97761.91;;;14.18;79.25
31088;BME280;17745;55.914;37.554;2023-04-26T09:24:23;97768.50;;;14.38;79.22
31088;BME280;17745;55.914;37.554;2023-04-26T09:27:08;97762.72;;;14.45;79.45
31088;BME280;17745;55.914;37.554;2023-04-26T09:29:40;97768.53;;;14.47;79.42
31088;BME280;17745;55.914;37.554;2023-04-26T09:32:10;97767.25;;;14.36;79.16
31088;BME280;17745;55.914;37.554;2023-04-26T09:34:45;97766.00;;;14.24;79.12
31088;BME280;17745;55.914;37.554;2023-04-26T09:37:31;97772.72;;;14.30;79.25
31088;BME280;17745;55.914;37.554;2023-04-26T09:40:17;97765.84;;;14.29;79.07
31088;BME280;17745;55.914;37.554;2023-04-26T09:42:59;97770.84;;;14.13;79.10
31088;BME280;17745;55.914;37.554;2023-04-26T09:45:44;97769.41;;;13.98;78.78
31088;BME280;17745;55.914;37.554;2023-04-26T09:48:20;97778.13;;;13.81;79.26
31088;BME280;17745;55.914;37.554;2023-04-26T09:50:58;97784.06;;;13.78;79.64
31088;BME280;17745;55.914;37.554;2023-04-26T09:53:48;97771.56;;;13.87;79.76
31088;BME280;17745;55.914;37.554;2023-04-26T09:56:32;97762.88;;;14.22;79.73
31088;BME280;17745;55.914;37.554;2023-04-26T09:59:13;97769.44;;;14.34;79.33
31088;BME280;17745;55.914;37.554;2023-04-26T10:12:19;97781.53;;;14.75;77.57
31088;BME280;17745;55.914;37.554;2023-04-26T10:15:27;97773.25;;;14.77;77.88
31088;BME280;17745;55.914;37.554;2023-04-26T10:18:29;97779.50;;;14.81;78.15
31088;BME280;17745;55.914;37.554;2023-04-26T10:21:17;97775.91;;;14.77;78.21
31088;BME280;17745;55.914;37.554;2023-04-26T10:24:20;97799.06;;;14.94;77.84
31088;BME280;17745;55.914;37.554;2023-04-26T10:38:19;97796.53;;;15.63;77.09
31088;BME280;17745;55.914;37.554;2023-04-26T10:41:40;97806.03;;;15.42;79.17
31088;BME280;17745;55.914;37.554;2023-04-26T10:44:39;97809.88;;;15.63;78.01
31088;BME280;17745;55.914;37.554;2023-04-26T10:47:32;97817.56;;;15.64;78.10
31088;BME280;17745;55.914;37.554;2023-04-26T10:50:52;97811.38;;;15.42;78.54
31088;BME280;17745;55.914;37.554;2023-04-26T10:57:01;97816.34;;;14.79;78.26
31088;BME280;17745;55.914;37.554;2023-04-26T11:00:16;97819.44;;;15.16;78.80
31088;BME280;17745;55.914;37.554;2023-04-26T11:03:22;97822.44;;;15.62;79.59
31088;BME280;17745;55.914;37.554;2023-04-26T11:06:11;97813.47;;;16.06;79.98
31088;BME280;17745;55.914;37.554;2023-04-26T11:08:47;97816.50;;;16.47;79.19
31088;BME280;17745;55.914;37.554;2023-04-26T11:11:54;97823.00;;;16.79;79.37
31088;BME280;17745;55.914;37.554;2023-04-26T11:15:03;97819.25;;;17.48;77.64
31088;BME280;17745;55.914;37.554;2023-04-26T11:17:58;97832.97;;;18.46;75.20
31088;BME280;17745;55.914;37.554;2023-04-26T11:20:46;97823.47;;;19.18;74.60
31088;BME280;17745;55.914;37.554;2023-04-26T11:23:21;97827.50;;;20.04;72.22
31088;BME280;17745;55.914;37.554;2023-04-26T11:25:58;97792.75;;;20.31;70.35
31088;BME280;17745;55.914;37.554;2023-04-26T11:28:33;97839.19;;;19.64;69.36
31088;BME280;17745;55.914;37.554;2023-04-26T11:31:18;97830.63;;;18.44;70.83
31088;BME280;17745;55.914;37.554;2023-04-26T11:33:59;97842.13;;;17.11;71.53
31088;BME280;17745;55.914;37.554;2023-04-26T11:39:04;97853.50;;;15.58;73.47
31088;BME280;17745;55.914;37.554;2023-04-26T11:41:37;97853.50;;;15.58;73.47
31088;BME280;17745;55.914;37.554;2023-04-26T11:44:10;97857.84;;;14.71;76.42
31088;BME280;17745;55.914;37.554;2023-04-26T11:46:50;97856.28;;;15.23;77.51
31088;BME280;17745;55.914;37.554;2023-04-26T11:49:31;97857.66;;;15.94;75.38
31088;BME280;17745;55.914;37.554;2023-04-26T11:52:33;97858.22;;;16.09;75.56
31088;BME280;17745;55.914;37.554;2023-04-26T11:55:38;97869.81;;;16.13;76.57
31088;BME280;17745;55.914;37.554;2023-04-26T11:58:44;97844.69;;;16.14;75.66
31088;BME280;17745;55.914;37.554;2023-04-26T12:01:38;97868.59;;;16.01;77.20
31088;BME280;17745;55.914;37.554;2023-04-26T12:04:37;97867.63;;;16.06;77.55
31088;BME280;17745;55.914;37.554;2023-04-26T12:07:30;97868.22;;;16.21;77.68
31088;BME280;17745;55.914;37.554;2023-04-26T12:10:14;97867.28;;;16.68;76.52
31088;BME280;17745;55.914;37.554;2023-04-26T12:12:59;97868.13;;;17.94;73.17
31088;BME280;17745;55.914;37.554;2023-04-26T12:15:45;97856.75;;;17.72;70.48
31088;BME280;17745;55.914;37.554;2023-04-26T12:18:17;97846.66;;;17.44;71.56
31088;BME280;17745;55.914;37.554;2023-04-26T12:20:49;97874.13;;;17.20;72.37
31088;BME280;17745;55.914;37.554;2023-04-26T12:23:25;97857.59;;;16.84;72.20
31088;BME280;17745;55.914;37.554;2023-04-26T12:25:56;97865.00;;;17.00;74.18
31088;BME280;17745;55.914;37.554;2023-04-26T12:28:39;97872.56;;;17.19;74.34
31088;BME280;17745;55.914;37.554;2023-04-26T12:31:26;97870.72;;;17.32;74.12
31088;BME280;17745;55.914;37.554;2023-04-26T12:33:54;97864.91;;;17.30;74.60
31088;BME280;17745;55.914;37.554;2023-04-26T12:36:24;97881.03;;;17.21;74.67
31088;BME280;17745;55.914;37.554;2023-04-26T12:38:53;97888.94;;;16.96;75.87
31088;BME280;17745;55.914;37.554;2023-04-26T12:41:28;97868.63;;;16.32;75.29
31088;BME280;17745;55.914;37.554;2023-04-26T12:44:38;97854.97;;;15.94;75.69
31088;BME280;17745;55.914;37.554;2023-04-26T12:47:33;97942.63;;;15.57;77.49
31088;BME280;17745;55.914;37.554;2023-04-26T12:50:12;97907.91;;;15.75;77.15
31088;BME280;17745;55.914;37.554;2023-04-26T12:52:59;97897.84;;;15.98;76.22
31088;BME280;17745;55.914;37.554;2023-04-26T12:56:04;97904.22;;;16.14;75.81
31088;BME280;17745;55.914;37.554;2023-04-26T12:59:05;97901.59;;;15.88;76.00
31088;BME280;17745;55.914;37.554;2023-04-26T13:02:03;97895.19;;;15.89;75.09
31088;BME280;17745;55.914;37.554;2023-04-26T13:08:24;97907.66;;;15.50;74.34
31088;BME280;17745;55.914;37.554;2023-04-26T13:11:56;97901.91;;;14.28;75.07
31088;BME280;17745;55.914;37.554;2023-04-26T13:15:21;97894.66;;;14.69;75.32
31088;BME280;17745;55.914;37.554;2023-04-26T13:32:09;97872.25;;;19.68;64.33
31088;BME280;17745;55.914;37.554;2023-04-26T13:34:56;97922.75;;;20.59;62.59
31088;BME280;17745;55.914;37.554;2023-04-26T13:37:45;97915.34;;;21.50;62.63
31088;BME280;17745;55.914;37.554;2023-04-26T13:41:17;97916.94;;;22.21;61.25
31088;BME280;17745;55.914;37.554;2023-04-26T13:44:50;97918.13;;;22.78;59.93
31088;BME280;17745;55.914;37.554;2023-04-26T14:03:04;97928.47;;;23.75;57.75
31088;BME280;17745;55.914;37.554;2023-04-26T14:06:32;97925.84;;;23.40;55.88
31088;BME280;17745;55.914;37.554;2023-04-26T14:09:39;97928.13;;;22.23;57.81
31088;BME280;17745;55.914;37.554;2023-04-26T14:12:49;97944.34;;;21.57;61.74
31088;BME280;17745;55.914;37.554;2023-04-26T14:15:46;97939.69;;;22.24;61.12
31088;BME280;17745;55.914;37.554;2023-04-26T14:18:48;97938.69;;;23.20;60.62
31088;BME280;17745;55.914;37.554;2023-04-26T14:21:22;97939.97;;;23.64;59.36
31088;BME280;17745;55.914;37.554;2023-04-26T14:24:07;97942.69;;;23.30;59.68
31088;BME280;17745;55.914;37.554;2023-04-26T14:26:50;97933.44;;;22.70;57.15
31088;BME280;17745;55.914;37.554;2023-04-26T14:29:30;97950.56;;;20.66;59.74
31088;BME280;17745;55.914;37.554;2023-04-26T14:32:13;97963.12;;;19.37;63.13
31088;BME280;17745;55.914;37.554;2023-04-26T14:35:08;97961.69;;;18.62;65.92
31088;BME280;17745;55.914;37.554;2023-04-26T14:38:07;97965.28;;;18.41;67.51
31088;BME280;17745;55.914;37.554;2023-04-26T14:44:41;97943.22;;;21.19;62.02
31088;BME280;17745;55.914;37.554;2023-04-26T14:47:48;97943.75;;;22.61;63.71
31088;BME280;17745;55.914;37.554;2023-04-26T15:01:39;97956.09;;;25.18;60.97
31088;BME280;17745;55.914;37.554;2023-04-26T15:04:43;97960.69;;;24.95;58.22
31088;BME280;17745;55.914;37.554;2023-04-26T15:07:37;97966.59;;;24.56;60.19
31088;BME280;17745;55.914;37.554;2023-04-26T15:11:08;97962.03;;;24.11;60.24
31088;BME280;17745;55.914;37.554;2023-04-26T15:14:53;97974.66;;;24.45;60.60
31088;BME280;17745;55.914;37.554;2023-04-26T15:40:21;98001.31;;;20.84;59.56
31088;BME280;17745;55.914;37.554;2023-04-26T15:43:27;97992.38;;;19.99;57.90
31088;BME280;17745;55.914;37.554;2023-04-26T15:46:33;98005.81;;;19.42;62.86
31088;BME280;17745;55.914;37.554;2023-04-26T15:49:46;98008.94;;;19.04;62.22
31088;BME280;17745;55.914;37.554;2023-04-26T15:52:56;98013.94;;;19.05;63.93
31088;BME280;17745;55.914;37.554;2023-04-26T15:55:44;98011.44;;;19.37;62.40
31088;BME280;17745;55.914;37.554;2023-04-26T15:58:36;98012.06;;;19.47;62.19
31088;BME280;17745;55.914;37.554;2023-04-26T16:15:01;98015.97;;;18.71;57.72
31088;BME280;17745;55.914;37.554;2023-04-26T16:18:33;98015.97;;;18.71;57.72
31088;BME280;17745;55.914;37.554;2023-04-26T16:21:56;98039.09;;;18.38;62.59